Archival Weather

Heathrow

Heathrow, United Kingdom (EGLL)

Report from: Thursday, June 23, 2022 8:50 PM BST
Current time: Tuesday, August 16, 2022 8:24 AM BST

Current weather
Weather history
Weather forecast

Temperature21.0°C (69.8°F)
Dew point14.0°C (57.2°F)
Winds 8 kts (4.1 m/s, 9.2 mph) South-Southwest (210°)
Visibility6.2 mi. (10 km)
Clouds Few clouds 2,700 ft. (823 m)
Altimeter29.74 in.Hg (1007 mB)
Relative humidity64 %
Density altitude1,134 ft. (346 m)
Remarks Fully automated report
Corrected report
No significant changes expected in the next two hours
Flight conditions Visual Meteorological Conditions
Raw dataCOR EGLL 231950Z AUTO 21008KT 9999 FEW027 21/14 Q1007 NOSIG
An error has occurred. This application may no longer respond until reloaded. Reload 🗙